Latest Weather Observations for Gunnedah Airport

IDN60801

Issued at 4:05 pm EDT Saturday 1 November 2014 (issued every 30 minutes, with the page automatically refreshed every 10 minutes)

About weather observations | Map of weather stations | Latest weather observations for NSW | Other Formats
Station Details ID: 055202 Name: GUNNEDAH AIRPORT AWS Lat: -30.95 Lon: 150.25 Height: 262.57 m
Data from the previous 72 hours. | See also: Recent months at Gunnedah Airport
Date/Time
EDT
Temp
°C
App
Temp
°C
Dew
Point
Rel
Hum
%
Delta-T
°C
Wind Press
QNH
hPa
Press
MSL
hPa
Rain
since 9 am
mm
Dir
 
Spd
km/h
Gust
km/h
Spd
kts
Gust
kts
01/04:01pm 32.4 26.1 11.0 27 12.6 NW 35 54 19 29 1004.0 1002.8 0.0
01/04:00pm 32.4 25.7 11.0 27 12.6 NW 37 54 20 29 1004.0 1002.8 0.0
01/03:31pm 32.2 24.5 10.3 26 12.7 NNW 41 59 22 32 1004.1 1002.9 0.0
01/03:30pm 32.2 24.2 10.3 26 12.7 NNW 43 59 23 32 1004.0 1002.8 0.0
01/03:00pm 33.3 27.4 12.3 28 12.7 NNW 35 54 19 29 1004.6 1003.4 0.0
01/02:30pm 32.9 26.7 12.5 29 12.3 NNW 37 59 20 32 1005.0 1003.9 0.0
01/02:00pm 32.6 26.1 11.7 28 12.4 NW 37 56 20 30 1005.8 1004.7 0.0
01/01:30pm 31.9 23.8 12.2 30 11.8 NNW 46 65 25 35 1006.7 1005.5 0.0
01/01:03pm 31.8 24.0 11.0 28 12.2 NW 43 63 23 34 1006.7 1005.5 0.0
01/01:00pm 31.9 24.5 11.1 28 12.2 NW 41 56 22 30 1006.9 1005.7 0.0
01/12:41pm 33.0 26.1 10.4 25 13.2 NNW 37 59 20 32 1006.9 1005.7 0.0
01/12:38pm 32.4 25.0 9.9 25 13.0 N 39 52 21 28 1006.9 1005.7 0.0
01/12:32pm 32.8 25.7 10.8 26 12.9 NW 39 57 21 31 1006.8 1005.6 0.0
01/12:30pm 32.3 24.9 9.8 25 13.0 NW 39 46 21 25 1006.8 1005.6 0.0
01/12:28pm 32.6 25.4 10.6 26 12.8 NW 39 46 21 25 1006.9 1005.7 0.0
01/12:09pm 32.5 26.8 11.1 27 12.6 N 32 56 17 30 1007.3 1006.1 0.0
01/12:00pm 31.3 24.8 11.7 30 11.6 N 37 52 20 28 1007.4 1006.2 0.0
01/11:30am 32.5 27.6 12.7 30 11.9 N 30 44 16 24 1008.0 1006.8 0.0
01/11:22am 32.2 27.5 11.9 29 12.1 N 28 46 15 25 1008.2 1007.0 0.0
01/11:00am 31.3 25.3 12.2 31 11.4 N 35 52 19 28 1008.4 1007.3 0.0
01/10:55am 31.7 27.2 12.5 31 11.5 NNW 28 48 15 26 1008.4 1007.7 0.0
01/10:30am 31.5 28.6 12.8 32 11.2 WNW 20 41 11 22 1008.9 1008.2 0.0
01/10:00am 28.2 27.0 12.9 38 9.1 NW 11 20 6 11 1009.3 1008.6 0.0
01/09:30am 27.1 26.5 13.4 42 8.2 NE 9 13 5 7 1009.5 1008.8 0.0
01/09:00am 25.8 25.4 14.0 48 7.1 NE 9 15 5 8 1009.6 1008.9 -
01/08:30am 23.9 22.2 14.6 56 5.6 NE 17 22 9 12 1009.7 1009.0 -
01/08:00am 22.9 21.7 15.0 61 4.8 NE 15 19 8 10 1009.7 1009.0 -
01/07:30am 22.7 22.2 15.0 61 4.6 ENE 11 15 6 8 1009.7 1009.0 -
01/07:00am 21.4 20.9 14.8 66 3.9 NE 11 15 6 8 1010.1 1009.4 -
01/06:30am 21.1 19.3 14.5 66 3.9 NNE 17 22 9 12 1010.1 1009.4 -
01/06:00am 21.3 18.2 14.5 65 4.0 NE 24 32 13 17 1009.7 1009.0 -
01/05:30am 21.3 18.6 14.5 65 4.0 NNE 22 28 12 15 1009.9 1009.2 -
01/05:00am 20.6 19.7 13.6 64 4.1 NNE 11 15 6 8 1009.9 1009.2 -
01/04:30am 22.3 20.2 13.6 58 5.1 N 17 22 9 12 1009.8 1009.1 -
01/04:00am 22.1 20.6 13.2 57 5.2 N 13 19 7 10 1010.0 1009.3 -
01/03:30am 22.1 20.7 13.5 58 5.0 N 13 17 7 9 1009.8 1009.1 -
01/03:00am 20.5 20.7 14.6 69 3.5 NNW 7 15 4 8 1009.8 1009.1 -
01/02:00am 19.7 21.5 15.4 76 2.6 CALM 0 0 0 0 1010.4 1009.6 0.2
01/01:30am 19.9 21.6 15.3 75 2.7 CALM 0 0 0 0 1011.3 1010.6 0.2
01/01:00am 19.9 19.9 15.3 75 2.7 SE 9 11 5 6 1010.8 1010.0 0.2
01/12:30am 19.2 18.8 15.1 77 2.4 SSE 11 15 6 8 1011.1 1010.3 0.2
01/12:00am 20.1 20.3 15.7 76 2.6 SSE 9 13 5 7 1011.2 1010.4 0.2
 
Date/Time
EDT
Temp
°C
App
Temp
°C
Dew
Point
Rel
Hum
%
Delta-T
°C
Wind Press
QNH
hPa
Press
MSL
hPa
Rain
since 9 am
mm
Dir
 
Spd
km/h
Gust
km/h
Spd
kts
Gust
kts
31/11:30pm 20.1 21.1 16.3 79 2.3 SW 6 15 3 8 1011.9 1011.2 0.2
31/11:00pm 20.6 19.7 15.8 74 2.9 E 15 20 8 11 1011.9 1011.2 0.0
31/10:30pm 21.7 21.4 14.4 63 4.3 W 9 19 5 10 1012.5 1011.8 0.0
31/10:00pm 22.4 19.2 14.3 60 4.8 W 24 39 13 21 1012.2 1011.5 0.0
31/09:30pm 23.5 18.8 13.1 52 6.1 W 30 44 16 24 1011.4 1010.7 0.0
31/09:00pm 22.4 17.8 14.5 61 4.7 W 32 52 17 28 1011.2 1010.4 0.0
31/08:30pm 24.5 17.9 12.5 47 7.0 W 39 65 21 35 1010.7 1009.9 0.0
31/08:21pm 25.5 16.4 11.3 41 8.1 WNW 50 70 27 38 1010.8 1010.0 0.0
31/08:17pm 26.4 15.8 10.1 36 9.2 WNW 56 69 30 37 1010.1 1009.4 0.0
31/08:12pm 28.3 21.3 8.6 29 10.9 WNW 35 70 19 38 1009.8 1009.1 0.0
31/08:11pm 28.9 23.0 7.5 26 11.7 WNW 28 48 15 26 1009.8 1009.1 0.0
31/08:00pm 29.7 26.5 7.0 24 12.4 N 13 15 7 8 1008.3 1007.6 0.0
31/07:30pm 30.3 27.7 6.2 22 13.0 N 9 11 5 6 1008.0 1007.3 0.0
31/07:00pm 31.1 28.5 6.2 21 13.5 N 9 13 5 7 1007.6 1006.8 0.0
31/06:30pm 32.7 30.3 5.3 18 14.7 ENE 7 13 4 7 1007.4 1006.6 0.0
31/06:00pm 34.7 30.4 5.2 16 16.0 N 17 22 9 12 1007.4 1006.6 0.0
31/05:30pm 34.5 30.0 4.1 15 16.2 NW 17 24 9 13 1007.4 1006.6 0.0
31/05:00pm 34.8 30.5 5.3 16 16.1 NW 17 30 9 16 1007.6 1006.8 0.0
31/04:30pm 35.5 30.6 4.9 15 16.6 NW 20 30 11 16 1007.8 1007.0 0.0
31/04:00pm 34.8 28.8 3.4 14 16.6 NW 24 30 13 16 1008.2 1007.5 0.0
31/03:30pm 36.2 32.5 4.5 14 17.1 WNW 13 19 7 10 1008.6 1007.9 0.0
31/03:00pm 35.3 30.3 4.8 15 16.5 NNW 20 32 11 17 1009.1 1008.4 0.0
31/02:30pm 34.6 29.7 5.1 16 16.0 W 20 35 11 19 1009.7 1009.0 0.0
31/02:00pm 35.9 30.8 4.2 14 17.0 WNW 20 32 11 17 1010.4 1009.6 0.0
31/01:30pm 35.3 31.5 5.7 16 16.2 NW 15 22 8 12 1011.0 1010.2 0.0
31/01:00pm 34.3 29.2 4.0 15 16.1 NNW 20 30 11 16 1011.6 1010.9 0.0
31/12:30pm 33.6 29.7 3.4 15 15.8 NNW 13 20 7 11 1012.1 1011.4 0.0
31/12:00pm 32.7 28.8 3.6 16 15.2 WNW 13 20 7 11 1012.8 1012.1 0.0
31/11:30am 32.6 28.5 4.4 17 14.9 N 15 26 8 14 1013.5 1012.8 0.0
31/11:00am 32.1 28.6 5.6 19 14.3 NNW 13 22 7 12 1014.0 1013.3 0.0
31/10:30am 30.1 26.4 4.7 20 13.3 NW 13 17 7 9 1014.6 1013.9 0.0
31/10:00am 29.0 26.5 4.5 21 12.7 NW 7 15 4 8 1014.9 1014.2 0.0
31/09:30am 26.5 24.1 4.3 24 11.3 W 6 9 3 5 1015.1 1014.4 0.0
31/09:00am 25.2 22.9 4.9 27 10.4 E 6 13 3 7 1015.1 1014.4 0.0
31/08:30am 22.9 19.9 3.9 29 9.4 ESE 9 13 5 7 1015.1 1014.4 0.0
31/08:00am 20.7 16.4 3.4 32 8.3 SE 15 19 8 10 1015.0 1014.3 0.0
31/07:30am 19.0 15.2 4.0 37 7.2 SSE 13 17 7 9 1014.8 1014.1 0.0
31/07:00am 14.5 11.3 5.3 54 4.4 SSE 11 15 6 8 1014.7 1014.0 0.0
31/06:30am 11.3 9.9 3.8 60 3.4 CALM 0 11 0 6 1014.3 1013.5 0.0
31/06:00am 11.1 7.9 2.9 57 3.6 SE 9 11 5 6 1013.9 1013.2 0.0
31/05:30am 10.2 6.7 3.5 63 3.0 SSE 11 13 6 7 1013.6 1012.9 0.0
31/05:00am 9.8 8.6 4.4 69 2.4 CALM 0 0 0 0 1013.5 1012.8 0.0
31/04:30am 10.9 9.7 4.4 64 3.0 CALM 0 0 0 0 1013.2 1012.5 0.0
31/04:00am 10.0 8.8 4.8 70 2.4 CALM 0 0 0 0 1013.4 1012.7 0.0
31/03:30am 11.0 10.0 5.5 69 2.6 CALM 0 0 0 0 1013.4 1012.7 0.0
31/03:00am 11.0 9.9 5.1 67 2.7 CALM 0 0 0 0 1013.4 1012.7 0.0
31/02:30am 11.5 10.5 5.6 67 2.8 CALM 0 0 0 0 1013.4 1012.7 0.0
31/02:00am 11.2 10.1 5.1 66 2.8 CALM 0 0 0 0 1013.6 1012.9 0.0
31/01:30am 13.6 12.7 6.2 61 3.6 CALM 0 0 0 0 1013.6 1012.9 0.0
31/01:00am 12.6 11.2 5.5 62 3.4 NNE 2 7 1 4 1013.8 1013.1 0.0
31/12:30am 14.8 13.0 5.6 54 4.4 SSE 4 7 2 4 1013.8 1013.1 0.0
31/12:00am 15.9 14.9 5.5 50 5.0 CALM 0 0 0 0 1013.9 1013.2 0.0
 
Date/Time
EDT
Temp
°C
App
Temp
°C
Dew
Point
Rel
Hum
%
Delta-T
°C
Wind Press
QNH
hPa
Press
MSL
hPa
Rain
since 9 am
mm
Dir
 
Spd
km/h
Gust
km/h
Spd
kts
Gust
kts
30/11:30pm 15.7 14.8 5.9 52 4.8 CALM 0 0 0 0 1014.0 1013.3 0.0
30/11:00pm 16.6 15.8 6.7 52 4.9 CALM 0 0 0 0 1013.9 1013.2 0.0
30/10:30pm 18.0 16.1 4.9 42 6.4 ENE 4 6 2 3 1013.8 1013.1 0.0
30/10:00pm 19.4 16.6 5.1 39 7.1 ESE 9 11 5 6 1013.6 1012.9 0.0
30/09:30pm 18.9 17.9 5.7 42 6.6 CALM 0 0 0 0 1013.4 1012.7 0.0
30/09:00pm 20.0 18.8 4.5 36 7.6 CALM 0 0 0 0 1013.3 1012.6 0.0
30/08:30pm 22.2 19.9 4.7 32 8.7 SW 6 7 3 4 1012.9 1012.2 0.0
30/08:00pm 23.5 20.7 1.8 24 10.3 W 6 7 3 4 1012.6 1011.9 0.0
30/07:30pm 26.7 23.8 1.2 19 12.3 NNW 6 7 3 4 1012.4 1011.7 0.0
30/07:00pm 29.7 26.4 0.3 15 14.3 WNW 7 13 4 7 1012.2 1011.5 0.0
30/06:30pm 31.6 28.0 0.9 14 15.2 W 9 13 5 7 1012.0 1011.3 0.0
30/06:00pm 32.0 27.7 1.2 14 15.4 WSW 13 17 7 9 1011.8 1011.1 0.0
30/05:30pm 32.4 29.5 1.5 14 15.6 NNW 6 13 3 7 1011.8 1011.1 0.0
30/05:00pm 32.5 29.5 0.6 13 15.9 S 6 13 3 7 1011.9 1011.2 0.0
30/04:30pm 32.0 28.0 0.2 13 15.6 SW 11 20 6 11 1012.1 1011.4 0.0
30/04:00pm 31.8 26.9 2.0 15 15.1 W 17 24 9 13 1012.3 1011.6 0.0
30/03:30pm 31.7 27.9 1.9 15 15.0 WNW 11 24 6 13 1012.6 1011.9 0.0
30/03:00pm 32.0 28.6 2.1 15 15.2 W 9 13 5 7 1012.9 1012.2 0.0
30/02:30pm 31.3 26.5 2.5 16 14.6 WSW 17 22 9 12 1013.3 1012.6 0.0
30/02:00pm 31.2 26.4 2.4 16 14.6 W 17 35 9 19 1013.8 1013.1 0.0
30/01:30pm 31.7 25.7 1.0 14 15.3 WSW 22 30 12 16 1014.3 1013.5 0.0
30/01:00pm 30.9 25.9 3.8 18 14.0 W 19 28 10 15 1014.7 1014.0 0.0
30/12:30pm 29.7 25.1 3.6 19 13.4 N 17 28 9 15 1015.0 1014.3 0.0
30/12:00pm 29.5 24.7 2.7 18 13.5 NW 17 26 9 14 1015.6 1014.9 0.0
30/11:30am 28.9 25.1 3.7 20 12.9 N 13 20 7 11 1016.1 1015.4 0.0
30/11:00am 27.4 24.1 4.5 23 11.8 WNW 11 20 6 11 1016.6 1015.9 0.0
30/10:30am 26.6 23.0 5.0 25 11.1 NW 13 20 7 11 1017.0 1016.3 0.0
30/10:00am 26.3 24.0 5.8 27 10.7 NW 7 17 4 9 1017.1 1016.4 0.0
30/09:30am 23.9 21.3 4.3 28 9.8 WNW 7 15 4 8 1017.3 1016.6 0.0
30/09:00am 23.3 22.5 6.6 34 8.7 CALM 0 0 0 0 1017.3 1016.6 0.0
30/08:30am 21.1 19.1 6.2 38 7.6 ENE 6 9 3 5 1017.2 1016.5 0.0
30/08:00am 20.5 20.2 8.5 46 6.4 CALM 0 0 0 0 1016.9 1016.2 0.0
30/07:30am 18.3 17.7 8.8 54 5.0 SSE 2 7 1 4 1016.7 1016.0 0.0
30/07:00am 14.8 13.5 10.0 73 2.5 SE 7 9 4 5 1016.3 1015.6 0.0
30/06:30am 11.7 10.7 7.2 74 2.2 SSE 2 11 1 6 1015.9 1015.2 0.0
30/06:00am 9.6 8.4 4.6 71 2.3 CALM 0 0 0 0 1015.5 1014.8 0.0
30/05:30am 10.6 9.4 4.7 67 2.7 CALM 0 0 0 0 1015.4 1014.7 0.0
30/05:00am 11.9 10.8 5.1 63 3.2 CALM 0 0 0 0 1015.2 1014.5 0.0
30/04:30am 11.6 9.2 5.3 65 2.9 SSE 7 9 4 5 1015.0 1014.3 0.0
30/04:00am 13.2 10.8 5.4 59 3.7 S 7 9 4 5 1014.8 1014.1 0.0
30/03:30am 12.7 9.9 5.1 60 3.6 S 9 9 5 5 1014.8 1014.1 0.0
30/03:00am 11.9 9.7 6.0 67 2.8 SSW 7 7 4 4 1014.8 1014.1 0.0
30/02:30am 12.8 12.0 6.4 65 3.1 CALM 0 0 0 0 1014.8 1014.1 0.0
30/02:00am 12.4 10.6 5.6 63 3.2 SE 4 9 2 5 1014.9 1014.2 0.0
30/01:30am 12.5 9.9 4.2 57 3.8 E 7 17 4 9 1014.9 1014.2 0.0
30/01:00am 13.8 12.2 4.4 53 4.4 N 2 7 1 4 1014.9 1014.2 0.0
30/12:30am 14.5 12.7 5.3 54 4.4 WSW 4 7 2 4 1015.0 1014.3 0.0
30/12:00am 14.4 11.9 5.0 53 4.5 W 7 11 4 6 1015.2 1014.5 0.0
 
Date/Time
EDT
Temp
°C
App
Temp
°C
Dew
Point
Rel
Hum
%
Delta-T
°C
Wind Press
QNH
hPa
Press
MSL
hPa
Rain
since 9 am
mm
Dir
 
Spd
km/h
Gust
km/h
Spd
kts
Gust
kts
29/11:30pm 16.3 15.1 4.4 45 5.7 CALM 0 0 0 0 1015.0 1014.3 0.0
29/11:00pm 16.3 13.1 5.0 47 5.4 E 11 13 6 7 1014.8 1014.1 0.0
29/10:30pm 17.3 14.9 4.3 42 6.2 E 6 11 3 6 1014.7 1014.0 0.0
29/10:00pm 18.8 16.7 6.0 43 6.4 SE 6 7 3 4 1014.7 1014.0 0.0
29/09:30pm 20.1 19.1 5.7 39 7.2 CALM 0 0 0 0 1014.7 1014.0 0.0
29/09:00pm 22.0 20.6 3.6 30 9.0 CALM 0 0 0 0 1014.5 1013.7 0.0
29/08:30pm 22.3 19.5 2.9 28 9.4 SSW 7 11 4 6 1014.1 1013.4 0.0
29/08:00pm 23.3 20.6 2.7 26 10.0 SSE 6 7 3 4 1013.8 1013.1 0.0
29/07:30pm 25.9 23.5 1.9 21 11.7 S 4 9 2 5 1013.5 1012.8 0.0
29/07:00pm 29.4 26.4 1.0 16 13.9 SSW 6 7 3 4 1013.1 1012.4 0.0
29/06:30pm 30.3 27.0 -0.1 14 14.7 WSW 7 9 4 5 1013.0 1012.3 0.0
29/06:00pm 31.1 28.1 0.5 14 15.0 WNW 6 9 3 5 1012.9 1012.2 0.0
29/05:30pm 30.2 26.6 0.7 15 14.5 NE 9 13 5 7 1012.9 1012.2 0.0
29/05:00pm 30.4 27.0 1.8 16 14.3 ESE 9 19 5 10 1012.9 1012.2 0.0
29/04:30pm 30.6 27.2 1.9 16 14.4 SSE 9 13 5 7 1013.1 1012.4 0.0

Other Formats:

Comma delimited format used in spreadsheet applications
http://www.bom.gov.au/fwo/IDN60801/IDN60801.95740.axf

JavaScript Object Notation format (JSON) in row-major order
http://www.bom.gov.au/fwo/IDN60801/IDN60801.95740.json